Home > Products > Valid Products > TAF

000
FTUS42 KCHS 260500
TAFCHS
TAF
KCHS 260525Z 2606/2706 34008KT 4SM -RA BR BKN005 OVC014
     FM261100 33011G18KT 5SM RA BR BKN009 OVC015
     FM261400 32014G22KT P6SM BKN018
     FM261800 30012KT P6SM BKN030
     FM262300 25004KT P6SM SCT035=



000
FTUS42 KCHS 260500
TAFSAV
TAF
KSAV 260525Z 2606/2706 34011KT 5SM -RA BKN005 OVC015
     FM260900 31013G19KT 6SM -RA BKN012 OVC030
     FM261500 30015G23KT P6SM BKN020
     FM261800 29013G20KT P6SM SCT040=



000
FTUS42 KCHS 260400 AAC
TAFCHS
TAF AMD
KCHS 260443Z 2605/2624 01008KT 5SM -RA BR OVC005
      TEMPO 2605/2607 2SM RA BR BKN003 OVC012
     FM261100 33010G17KT 5SM RA BR SCT010 OVC020
     FM261500 32014G22KT P6SM SCT025 BKN035
     FM261900 30012KT P6SM SCT050=



000
FTUS42 KCHS 260300 AAB
TAFCHS
TAF AMD
KCHS 260352Z 2604/2624 36008KT 5SM -RA BR BKN006 OVC020
      TEMPO 2604/2607 2SM RA BR OVC005
     FM261100 33010G17KT 5SM RA BR SCT010 OVC020
     FM261500 32014G22KT P6SM SCT025 BKN035
     FM261900 30012KT P6SM SCT050=



000
FTUS42 KCHS 260300 AAB
TAFCHS
TAF AMD
KCHS 260352Z 2604/2624 36008KT 5SM -RA BR BKN006 OVC020
      TEMPO 2604/2607 2SM RA BR OVC005
     FM261100 33010G17KT 5SM RA BR SCT010 OVC020
     FM261500 32014G22KT P6SM SCT025 BKN035
     FM261900 30012KT P6SM SCT050=



000
FTUS42 KCHS 260300 AAB
TAFSAV
TAF AMD
KSAV 260348Z 2604/2624 35008KT 5SM -RA BKN008 OVC025
      TEMPO 2604/2607 2SM RA BKN004
     FM260900 32010G16KT 6SM -RA BKN012 OVC030
     FM261400 30015G23KT P6SM SCT020 BKN035
     FM261800 29014G20KT P6SM SCT050=



000
FTUS42 KCHS 260300 AAB
TAFSAV
TAF AMD
KSAV 260348Z 2604/2624 35008KT 5SM -RA BKN008 OVC025
      TEMPO 2604/2607 2SM RA BKN004
     FM260900 32010G16KT 6SM -RA BKN012 OVC030
     FM261400 30015G23KT P6SM SCT020 BKN035
     FM261800 29014G20KT P6SM SCT050=



000
FTUS42 KCHS 260200 AAA
TAFCHS
TAF AMD
KCHS 260243Z 2603/2624 06010KT 5SM -RA BKN005 OVC020
      TEMPO 2603/2604 2SM RA OVC005
     FM260400 36008KT 3SM RA BR SCT006 OVC009
     FM261100 33010G17KT 5SM RA BR SCT010 OVC020
     FM261500 32014G22KT P6SM SCT025 BKN035
     FM261900 30012KT P6SM SCT050=



000
FTUS42 KCHS 260100 AAA
TAFSAV
TAF AMD
KSAV 260108Z 2601/2624 02005KT P6SM -RA SCT004 OVC035
     FM260300 35008KT 5SM -RA SCT005 OVC020
      TEMPO 2604/2607 3SM RA BKN005
     FM260900 32010G16KT 6SM -RA SCT010 OVC020
     FM261400 30015G23KT P6SM SCT020 BKN035
     FM261800 29014G20KT P6SM SCT050=



000
FTUS42 KCHS 252300
TAFSAV
TAF
KSAV 252326Z 2600/2624 01005KT P6SM -RA BKN005 OVC015
     FM260200 35008KT 5SM RA BR OVC006
      TEMPO 2603/2606 2SM RA
     FM260900 32010G16KT 6SM -RA SCT010 OVC020
     FM261400 30015G23KT P6SM SCT020 BKN035
     FM261800 29014G20KT P6SM SCT050=



000
FTUS42 KCHS 252300
TAFCHS
TAF
KCHS 252326Z 2600/2624 06006KT P6SM -RA SCT006 OVC020
      TEMPO 2601/2604 4SM RA BKN008 OVC015
     FM260400 36008KT 3SM RA BR SCT006 OVC009
     FM261100 33010G17KT 5SM RA BR SCT010 OVC020
     FM261500 32014G22KT P6SM SCT025 BKN035
     FM261900 30012KT P6SM SCT050=



000
FTUS42 KCHS 252200 AAC
TAFSAV
TAF AMD
KSAV 252203Z 2522/2618 34008KT 6SM -RA BR OVC006
      TEMPO 2522/2524 5SM -RA
     FM260000 01008KT 4SM RA BR OVC006
     FM260400 32009KT 2SM RA BR SCT008 OVC015
     FM260900 32012G18KT 6SM -RA SCT010 OVC020
     FM261400 30015G23KT P6SM SCT020 BKN035=



000
FTUS42 KCHS 252100 AAB
TAFCHS
TAF AMD
KCHS 252113Z 2521/2618 34008KT 6SM -RA SCT008 OVC015
      TEMPO 2521/2601 BKN008
     FM260200 02008KT 5SM -RA BR SCT008 OVC010
     FM260500 36010KT 2SM +RA BR SCT008 OVC015
     FM261100 33010G17KT 5SM RA BR SCT010 OVC025
     FM261500 32014G22KT P6SM SCT025 BKN035=



000
FTUS42 KCHS 252100 AAB
TAFSAV
TAF AMD
KSAV 252101Z 2521/2618 34006KT 3SM -RA BR OVC006
      TEMPO 2521/2523 1SM RA BR OVC003
     FM260000 01008KT 3SM RA BR OVC006
     FM260400 32009KT 2SM RA BR SCT008 OVC015
     FM260900 32012G18KT 6SM -RA SCT010 OVC020
     FM261400 30015G23KT P6SM SCT020 BKN035=



000
FTUS42 KCHS 252000 CCB
TAFSAV
TAF COR
KSAV 252002Z 2520/2618 34005KT 6SM -RA BR OVC006
     FM260000 01008KT 3SM RA BR OVC008
     FM260400 32009KT 2SM RA BR SCT008 OVC015
     FM260900 32012G18KT 6SM -RA SCT010 OVC020
     FM261400 30015G23KT P6SM SCT020 BKN035=



000
FTUS42 KCHS 251900 AAA
TAFSAV
TAF AMD
KSAV 251957Z 2520/2618 34005KT 5SM -RA BR OVC006
     FM260000 01008KT 3SM RA BR OVC008
     FM260400 32009KT 2SM RA BR SCT008 OVC015
     FM260900 32012G18KT 6SM -RA SCT010 OVC020
     FM261400 30015G23KT P6SM SCT020 BKN035=



000
FTUS42 KCHS 251900 AAA
TAFCHS
TAF AMD
KCHS 251918Z 2519/2618 36003KT P6SM -RA SCT015 OVC035
     FM260200 02008KT 5SM -RA BR SCT015 BKN025
     FM260500 36010KT 2SM +RA BR SCT008 OVC015
     FM261100 33010G17KT 5SM RA BR SCT010 OVC025
     FM261500 32014G22KT P6SM SCT025 BKN035=



000
FTUS42 KCHS 251700 CCA
TAFSAV
TAF COR
KSAV 251743Z 2518/2618 36004KT P6SM OVC006
     FM252000 36007KT P6SM SCT006 OVC015
     FM260000 01008KT 5SM -RA BR SCT008 OVC015
     FM260400 32009KT 3SM RA BR SCT008 OVC015
     FM260900 32012G18KT 6SM -RA SCT010 OVC020
     FM261400 30015G23KT P6SM SCT020 BKN035=



000
FTUS42 KCHS 251700
TAFCHS
TAF
KCHS 251723Z 2518/2618 VRB05KT 6SM -RA SCT015 OVC030
     FM252000 36005KT P6SM SCT015 OVC035
     FM260200 02008KT 5SM -RA BR SCT015 BKN025
     FM260500 36010KT 2SM +RA BR SCT008 OVC015
     FM261100 33010G17KT 5SM RA BR SCT010 OVC025
     FM261500 32014G22KT P6SM SCT025 BKN035=



000
FTUS42 KCHS 251700
TAFSAV
TAF
KSAV 251723Z 2518/2618 36004KT P6SM -RA BKN006
     FM252000 36007KT P6SM SCT006 OVC015
     FM260000 01008KT 5SM -RA BR SCT008 OVC015
     FM260400 32009KT 3SM RA BR SCT008 OVC015
     FM260900 32012G18KT 6SM -RA SCT010 OVC020
     FM261400 30015G23KT P6SM SCT020 BKN035=



000
FTUS42 KCHS 251500 AAD
TAFSAV
TAF AMD
KSAV 251559Z 2516/2612 VRB03KT 2SM -RA BR BKN008
      TEMPO 2517/2518 3SM -RA SCT008 BKN035
     FM251800 33006KT 6SM -RA BR SCT010 BKN035
     FM252300 04008KT 4SM RA BR BKN015
     FM260600 31007KT 5SM -SHRA BR BKN012=



000
FTUS42 KCHS 251400 AAC
TAFSAV
TAF AMD
KSAV 251434Z 2515/2612 VRB05KT 2SM -RA BR SCT008 OVC035
      TEMPO 2515/2517 3SM -RA
     FM251700 33006KT 6SM -RA BR SCT010 BKN035
     FM252300 04008KT 4SM RA BR BKN015
     FM260600 31007KT 5SM -SHRA BR BKN012=



000
FTUS42 KCHS 251400 AAB
TAFCHS
TAF AMD
KCHS 251433Z 2515/2612 VRB05KT 3SM RA BR SCT007 OVC035
      TEMPO 2515/2517 2SM +RA
     FM251700 VRB05KT 5SM -RA BR SCT015 OVC035
     FM252000 02007KT 4SM -RA BR SCT015 OVC030
     FM260000 03007KT 2SM +RA BR SCT008 BKN015
     FM260900 33010KT 3SM RA BR BKN012=



000
FTUS42 KCHS 251300 AAB
TAFSAV
TAF AMD
KSAV 251342Z 2514/2612 VRB05KT 5SM -RA BR SCT008 OVC035
     FM251600 33006KT 6SM -RA BR SCT010 BKN035
     FM252300 04008KT 4SM RA BR BKN015
     FM260600 31007KT 5SM -SHRA BR BKN012=



000
FTUS42 KCHS 251300 AAA
TAFSAV
TAF AMD
KSAV 251318Z 2513/2612 VRB03KT 2SM RA BR SCT008 OVC035
      TEMPO 2513/2516 1 1/2SM +RA BKN025
     FM251600 33006KT 5SM -RA BR SCT010 BKN035
     FM252300 04008KT 4SM RA BR BKN015
     FM260600 31007KT 5SM -SHRA BR BKN012=



000
FTUS42 KCHS 251300 AAA
TAFCHS
TAF AMD
KCHS 251316Z 2513/2612 VRB05KT 3SM RA BR SCT007 OVC040
      TEMPO 2513/2515 2SM +RA BR BKN030
     FM251500 31005KT P6SM VCSH SCT015 OVC040
     FM252000 02007KT 4SM -RA BR SCT015 OVC030
     FM260000 03007KT 2SM +RA BR SCT008 BKN015
     FM260900 33010KT 3SM RA BR BKN012=



000
FTUS42 KCHS 251100
TAFCHS
TAF
KCHS 251125Z 2512/2612 25006KT 4SM -RA BR SCT030 OVC045
      TEMPO 2512/2515 3SM TSRA BR BKN030CB
     FM251500 31005KT P6SM VCSH SCT015 OVC040
     FM252000 02007KT 4SM -RA BR SCT015 OVC030
     FM260000 03007KT 2SM +RA BR SCT008 BKN015
     FM260900 33010KT 3SM RA BR BKN012=



000
FTUS42 KCHS 251100
TAFSAV
TAF
KSAV 251125Z 2512/2612 22004KT 3SM RA BR SCT020 BKN040
      TEMPO 2512/2514 1SM +TSRA BR BKN025CB
     FM251400 30003KT P6SM SCT005 OVC008
     FM251600 33006KT P6SM SCT020 BKN060
     FM252300 04008KT 4SM RA BR BKN015
     FM260600 31007KT 5SM -SHRA BR BKN012=



000
FTUS42 KCHS 251000 AAC
TAFSAV
TAF AMD
KSAV 251048Z 2511/2606 22004KT 2SM RA BR SCT020 BKN040
      TEMPO 2511/2513 1/2SM +TSRA FG BKN025CB
     FM251300 30003KT P6SM SCT005 OVC008
     FM251600 33006KT P6SM SCT020 BKN060
     FM252300 04008KT 3SM RA BR BKN015=



000
FTUS42 KCHS 251000 AAC
TAFSAV
TAF AMD
KSAV 251048Z 2511/2606 22004KT 2SM RA BR SCT020 BKN040
      TEMPO 2511/2513 1/2SM +TSRA FG BKN025CB
     FM251300 30003KT P6SM SCT005 OVC008
     FM251600 33006KT P6SM SCT020 BKN060
     FM252300 04008KT 3SM RA BR BKN015=



000
FTUS42 KCHS 251000 AAB
TAFCHS
TAF AMD
KCHS 251033Z 2511/2606 25006KT P6SM -RA OVC045
      TEMPO 2511/2513 4SM -RA SCT025 OVC040
     FM251400 31005KT P6SM SCT015 OVC040
     FM252000 02007KT 4SM -RA BR SCT015 OVC030
     FM260000 03007KT 3SM RA BR BKN015=



000
FTUS42 KCHS 250900 AAB
TAFSAV
TAF AMD
KSAV 250917Z 2509/2606 22004KT 4SM -RA SCT008 BKN050
      TEMPO 2509/2511 1 1/2SM RA
     FM251300 30003KT P6SM SCT005 OVC008
     FM251600 33006KT P6SM SCT020 BKN060
     FM252300 04008KT 3SM RA BR BKN015=



000
FTUS42 KCHS 250700 AAA
TAFSAV
TAF AMD
KSAV 250756Z 2508/2606 22004KT 5SM -RA SCT008 BKN050
     FM251000 VRB03KT 3SM BR BKN004
     FM251300 30003KT P6SM SCT005 OVC008
     FM251600 33006KT P6SM SCT020 BKN060
     FM252300 04008KT 3SM RA BR BKN015=



000
FTUS42 KCHS 250700 AAA
TAFCHS
TAF AMD
KCHS 250755Z 2508/2606 23005KT P6SM VCSH SCT025 BKN045
     FM251100 VRB03KT 5SM BR SCT008 OVC015
     FM251400 31005KT P6SM SCT015 OVC040
     FM252000 02007KT 4SM -RA BR SCT015 OVC030
     FM260000 03007KT 3SM RA BR BKN015=



000
FTUS42 KCHS 250500
TAFCHS
TAF
KCHS 250530Z 2506/2606 23005KT 6SM -SHRA BR SCT025 BKN045
      TEMPO 2506/2508 4SM -TSRA BR BKN025CB
     FM250900 VRB03KT 5SM BR SCT008 OVC015
     FM251400 31005KT P6SM SCT015 OVC040
     FM252000 02007KT 4SM -RA BR SCT015 OVC030
     FM260000 03007KT 3SM RA BR BKN015=



000
FTUS42 KCHS 250500
TAFSAV
TAF
KSAV 250530Z 2506/2606 17004KT 5SM -TSRA BR SCT030 BKN060CB
     FM250800 VRB03KT 5SM BR SCT004 BKN012
     FM251000 VRB03KT 3SM BR BKN004
     FM251300 30003KT P6SM SCT005 OVC008
     FM251600 33006KT P6SM SCT020 BKN060
     FM252300 04008KT 3SM RA BR BKN015=



000
FTUS42 KCHS 250500 CCA
TAFCHS
TAF COR
KCHS 250514Z 2505/2524 23005KT 6SM -TSRA BR SCT025 BKN045CB
      TEMPO 2505/2507 4SM -TSRA BR BKN025CB
     FM250900 VRB03KT 5SM BR SCT008 OVC015
     FM251400 31005KT P6SM SCT015 OVC040
     FM252000 02007KT 4SM -RA BR SCT015 OVC030=



000
FTUS42 KCHS 250500 AAC
TAFCHS
TAF AMD
KCHS 250511Z 2505/2524 23005KT 6SM -SHRA BR SCT025 BKN045
      TEMPO 2506/2508 4SM -TSRA BR BKN025CB
     FM250900 VRB03KT 5SM BR SCT008 OVC015
     FM251400 31005KT P6SM SCT015 OVC040
     FM252000 02007KT 4SM -RA BR SCT015 OVC030=



000
FTUS42 KCHS 250300 AAC
TAFSAV
TAF AMD
KSAV 250335Z 2504/2524 VRB03KT P6SM SCT008 OVC040
      TEMPO 2504/2508 5SM -TSRA BKN008 OVC040CB
     FM250800 VRB03KT 5SM BR SCT006 OVC012
     FM251300 30003KT 5SM -RA BR SCT005 OVC008
     FM251800 33006KT 4SM RA BR SCT008 OVC015=



000
FTUS42 KCHS 250200 AAB
TAFSAV
TAF AMD
KSAV 250235Z 2503/2524 VRB03KT P6SM SCT008 OVC040
      TEMPO 2503/2506 5SM -SHRA BKN008 OVC040
     FM250600 VRB03KT 5SM BR SCT008 OVC025
     FM250800 VRB03KT 5SM BR SCT006 OVC012
     FM251000 31003KT 5SM -RA BR SCT005 OVC008
     FM251800 33006KT 4SM RA BR SCT008 OVC015=



000
FTUS42 KCHS 250100 AAB
TAFCHS
TAF AMD
KCHS 250129Z 2501/2524 20006KT P6SM SCT020 OVC035
      TEMPO 2502/2506 4SM RA BR SCT015 OVC025
     FM250600 21005KT P6SM SCT010 OVC025
     FM250800 VRB03KT 5SM BR SCT008 OVC015
     FM251400 31005KT 4SM -RA BR SCT005 OVC010
     FM251800 33007KT 4SM RA BR SCT008 OVC015=



000
FTUS42 KCHS 250000 AAA
TAFCHS
TAF AMD
KCHS 250050Z 2501/2524 20006KT P6SM SCT020 OVC060
      TEMPO 2501/2503 4SM RA BR SCT015 OVC025
     FM250600 21005KT P6SM SCT010 OVC025
     FM250800 VRB03KT 5SM BR SCT008 OVC015
     FM251400 31005KT 4SM -RA BR SCT005 OVC010
     FM251800 33007KT 4SM RA BR SCT008 OVC015=



000
FTUS42 KCHS 250000 AAA
TAFSAV
TAF AMD
KSAV 250040Z 2501/2524 VRB03KT P6SM BKN005 OVC040
      TEMPO 2501/2503 5SM -TSRA SCT005 BKN040CB
     FM250300 VRB03KT 5SM BR VCSH SCT010 BKN035
     FM250600 VRB03KT 5SM BR SCT010 OVC020
     FM250800 VRB03KT 5SM BR SCT006 OVC012
     FM251000 31003KT 5SM -RA BR SCT005 OVC008
     FM251800 33006KT 4SM RA BR SCT008 OVC015=



000
FTUS42 KCHS 242300
TAFSAV
TAF
KSAV 242339Z 2500/2524 VRB03KT P6SM -RA SCT015 OVC060
      TEMPO 2500/2503 5SM -TSRA SCT008 BKN040CB
     FM250300 VRB03KT 5SM BR VCSH SCT015 BKN035
     FM250600 VRB03KT 5SM BR SCT010 OVC020
     FM250800 VRB03KT 5SM BR SCT006 OVC012
     FM251000 31003KT 5SM -RA BR SCT005 OVC008
     FM251800 33006KT 4SM RA BR SCT008 OVC015=



000
FTUS42 KCHS 242300
TAFCHS
TAF
KCHS 242339Z 2500/2524 20006KT P6SM SCT020 OVC060
      TEMPO 2500/2503 5SM -RA BR SCT015 OVC025
     FM250600 21005KT P6SM SCT010 OVC025
     FM250800 VRB03KT 5SM BR SCT008 OVC015
     FM251400 31005KT 4SM -RA BR SCT005 OVC010
     FM251800 33007KT 4SM RA BR SCT008 OVC015=



000
FTUS42 KCHS 242100 AAB
TAFSAV
TAF AMD
KSAV 242142Z 2422/2518 25005KT P6SM VCTS SCT020CB BKN030
      TEMPO 2422/2424 4SM TSRA BR SCT010 BKN020CB
     FM250100 VRB04KT P6SM VCSH SCT015 BKN035
     FM250600 VRB02KT 6SM BR SCT005 OVC015
     FM250900 33003KT 5SM -RA BR SCT005 OVC008
     FM251300 33009KT 4SM RA BR SCT005 OVC015=



000
FTUS42 KCHS 242100 AAB
TAFSAV
TAF AMD
KSAV 242142Z 2422/2518 25005KT P6SM VCTS SCT020CB BKN030
      TEMPO 2422/2424 4SM TSRA BR SCT010 BKN020CB
     FM250100 VRB04KT P6SM VCSH SCT015 BKN035
     FM250600 VRB02KT 6SM BR SCT005 OVC015
     FM250900 33003KT 5SM -RA BR SCT005 OVC008
     FM251300 33009KT 4SM RA BR SCT005 OVC015=



000
FTUS42 KCHS 242000 AAB
TAFCHS
TAF AMD
KCHS 242015Z 2420/2518 24010KT P6SM VCSH SCT015 BKN035
     FM242200 21006KT P6SM SCT015 BKN035
     FM250800 VRB03KT 5SM -RA BR SCT008 OVC015
     FM251400 33008KT 4SM RA BR SCT005 OVC010=



000
FTUS42 KCHS 241900 AAA
TAFCHS
TAF AMD
KCHS 241928Z 2419/2518 22012G17KT P6SM SCT015 BKN020
      TEMPO 2419/2422 5SM SHRA BR BKN015
     FM242200 21006KT P6SM SCT015 BKN035
     FM250800 VRB03KT 5SM -RA BR SCT008 OVC015
     FM251400 33008KT 4SM RA BR SCT005 OVC010=



000
FTUS42 KCHS 241800 AAA
TAFSAV
TAF AMD
KSAV 241829Z 2418/2518 22010KT P6SM SCT015 BKN035
      TEMPO 2419/2421 5SM -SHRA BR BKN025
     FM242200 19006KT P6SM VCSH SCT015 BKN035
     FM250600 VRB02KT 6SM BR SCT005 OVC015
     FM250900 33003KT 5SM -RA BR SCT005 OVC008
     FM251300 33009KT 4SM RA BR SCT005 OVC015=



000
FTUS42 KCHS 241700
TAFSAV
TAF
KSAV 241728Z 2418/2518 21013G20KT P6SM SCT015 BKN035
      TEMPO 2418/2421 4SM SHRA BR BKN025
     FM242200 19006KT P6SM VCSH SCT015 BKN035
     FM250600 VRB02KT 6SM BR SCT005 OVC015
     FM250900 33003KT 5SM -RA BR SCT005 OVC008
     FM251300 33009KT 4SM RA BR SCT005 OVC015=



000
FTUS42 KCHS 241700
TAFCHS
TAF
KCHS 241728Z 2418/2518 22015G23KT P6SM SCT010 BKN020
      TEMPO 2419/2422 5SM SHRA BR BKN025
     FM242200 21006KT P6SM SCT015 BKN035
     FM250800 VRB03KT 5SM -RA BR SCT008 OVC015
     FM251400 33008KT 4SM RA BR SCT005 OVC010=



000
FTUS42 KCHS 241600 AAB
TAFSAV
TAF AMD
KSAV 241638Z 2417/2512 21013G18KT P6SM SCT015 BKN035
      TEMPO 2417/2421 4SM SHRA BR BKN025
     FM242100 21012G18KT P6SM VCSH SCT015 BKN050
     FM242300 17006KT P6SM SCT003 BKN012=



000
FTUS42 KCHS 241400 AAA
TAFSAV
TAF AMD
KSAV 241409Z 2414/2512 20010G15KT P6SM SCT006 OVC015 WS015/23040KT
     FM241530 21013G18KT P6SM SCT008 BKN015
     FM241900 21012G18KT P6SM VCSH SCT015 BKN050
     FM242300 17006KT P6SM SCT003 BKN012=



000
FTUS42 KCHS 241400 AAA
TAFCHS
TAF AMD
KCHS 241407Z 2414/2512 21010G18KT P6SM OVC006 WS015/23040KT
     FM241530 22015G20KT P6SM SCT008 OVC012
     FM241900 21012G18KT P6SM VCSH SCT020 BKN030
     FM250000 19006KT P6SM SCT005 BKN012=



000
FTUS42 KCHS 241100
TAFCHS
TAF
KCHS 241125Z 2412/2512 22009KT P6SM OVC006 WS015/23040KT
     FM241400 22015G20KT P6SM SCT008 OVC012
     FM241900 21012G18KT P6SM SCT020 BKN040
     FM250000 19006KT P6SM SCT005 BKN012=



000
FTUS42 KCHS 241100
TAFSAV
TAF
KSAV 241125Z 2412/2512 18007KT P6SM OVC006 WS015/23040KT
     FM241400 21012G18KT P6SM SCT008 BKN015
     FM241900 21012G18KT P6SM SCT015 BKN050
     FM242300 17006KT P6SM SCT003 BKN012=



000
FTUS42 KCHS 241000 CCA
TAFSAV
TAF COR
KSAV 241051Z 2411/2506 18007KT P6SM BKN008 WS015/24040KT
     FM241500 21012G18KT P6SM SCT008 BKN015
     FM241900 21010G16KT P6SM SCT015 BKN040=



000
FTUS42 KCHS 241000 AAB
TAFSAV
TAF AMD
KSAV 241049Z 2411/2506 18007KT P6SM BKN008 WS015/24040KT
     FM241500 21012G18KT 6SM BR SCT008 BKN015
     FM241900 21010G16KT P6SM SCT015 BKN040=



000
FTUS42 KCHS 241000 AAB
TAFCHS
TAF AMD
KCHS 241044Z 2411/2506 22009KT P6SM VCFG OVC006 WS015/22040KT
     FM241400 22015G20KT P6SM SCT008 OVC012
     FM241900 21012G18KT P6SM SCT015 BKN020=



000
FTUS42 KCHS 240900 AAA
TAFCHS
TAF AMD
KCHS 240918Z 2409/2506 20009KT P6SM VCFG SCT006 BKN015
      WS015/22040KT
     FM241030 21010KT 2SM BR SCT004 OVC008 WS015/22040KT
     FM241400 22015G20KT P6SM SCT008 OVC012
     FM241900 21012G18KT P6SM SCT015 BKN020=



000
FTUS42 KCHS 240800 AAA
TAFSAV
TAF AMD
KSAV 240812Z 2408/2506 18007KT P6SM BKN018 WS015/24040KT
     FM241000 20008KT 2SM BR OVC008 WS015/22040KT
     FM241500 21012G18KT 6SM BR SCT008 BKN015
     FM241900 21010G16KT P6SM SCT015 BKN040=



000
FTUS42 KCHS 240500
TAFSAV
TAF
KSAV 240528Z 2406/2506 18007KT P6SM SCT020 BKN040 WS015/24040KT
     FM240900 20008KT 2SM BR OVC008 WS015/22040KT
     FM241500 21012G18KT 6SM BR SCT008 BKN015
     FM241900 21010G16KT P6SM SCT015 BKN040=



000
FTUS42 KCHS 240500
TAFCHS
TAF
KCHS 240528Z 2406/2506 19009KT P6SM VCSH SCT015 BKN040
      WS015/24040KT
      TEMPO 2406/2407 5SM -SHRA BR BKN015
     FM240900 21010KT 2SM BR SCT004 OVC008 WS015/22040KT
     FM241400 22015G20KT P6SM SCT008 OVC012
     FM241900 21012G18KT P6SM SCT015 BKN020=



000
FTUS42 KCHS 240400 AAC
TAFSAV
TAF AMD
KSAV 240402Z 2404/2424 25006KT P6SM VCSH SCT050 BKN100
      WS015/22035KT
     FM240800 20008KT 2SM BR OVC008 WS020/22035KT
     FM241500 21012G18KT 6SM BR SCT008 BKN015
     FM241900 21010G16KT P6SM VCSH SCT015 BKN035=



000
FTUS42 KCHS 240400 AAC
TAFSAV
TAF AMD
KSAV 240402Z 2404/2424 25006KT P6SM VCSH SCT050 BKN100
      WS015/22035KT
     FM240800 20008KT 2SM BR OVC008 WS020/22035KT
     FM241500 21012G18KT 6SM BR SCT008 BKN015
     FM241900 21010G16KT P6SM VCSH SCT015 BKN035=



000
FTUS42 KCHS 240400 AAC
TAFCHS
TAF AMD
KCHS 240401Z 2404/2424 24006KT P6SM VCSH SCT010 BKN100
      WS015/22035KT
     FM240900 21010KT 2SM BR OVC008 WS015/22040KT
     FM241500 22015G20KT 6SM BR SCT008 OVC012
     FM241900 21012G18KT P6SM VCSH SCT015 BKN020=



000
FTUS42 KCHS 240400 AAC
TAFCHS
TAF AMD
KCHS 240401Z 2404/2424 24006KT P6SM VCSH SCT010 BKN100
      WS015/22035KT
     FM240900 21010KT 2SM BR OVC008 WS015/22040KT
     FM241500 22015G20KT 6SM BR SCT008 OVC012
     FM241900 21012G18KT P6SM VCSH SCT015 BKN020=



000
FTUS42 KCHS 240200 AAB
TAFSAV
TAF AMD
KSAV 240237Z 2403/2424 17011KT 5SM -RA BR SCT008 OVC025
      WS015/22040KT
     FM240400 19011KT 5SM BR SCT008 OVC015 WS015/22040KT
      TEMPO 2404/2406 P6SM NSW
     FM240800 20008KT 2SM BR OVC008 WS020/22035KT
     FM241500 21012G18KT 6SM BR SCT008 BKN015
     FM241900 21010G16KT P6SM VCSH SCT015 BKN035=



000
FTUS42 KCHS 240200 AAB
TAFCHS
TAF AMD
KCHS 240236Z 2403/2424 22013G20KT 2SM TSRA BR SCT004 OVC008CB
      TEMPO 2403/2404 1/2SM +TSRA FG OVC004CB
     FM240400 22008KT 4SM -RA OVC008 WS015/22040KT
     FM240900 21010KT 2SM BR OVC008 WS015/22040KT
     FM241500 22015G20KT 6SM BR SCT008 OVC012
     FM241900 21012G18KT P6SM VCSH SCT015 BKN020=



000
FTUS42 KCHS 240100 AAA
TAFCHS
TAF AMD
KCHS 240103Z 2401/2424 18010KT 6SM BR VCTS BKN008 OVC015CB
      TEMPO 2401/2404 2SM TSRA BR SCT005 OVC010CB
     FM240400 20012KT 5SM BR SCT008 OVC010 WS015/21040KT
     FM240900 21010KT 2SM BR OVC008 WS015/22040KT
     FM241500 22015G20KT 6SM BR SCT008 OVC012
     FM241900 21012G18KT P6SM VCSH SCT015 BKN020=



000
FTUS42 KCHS 240000 AAA
TAFSAV
TAF AMD
KSAV 240020Z 2400/2424 17011KT 6SM BR VCTS SCT008 OVC025CB
      TEMPO 2401/2403 VRB20G30KT 2SM TSRA BR SCT005 BKN010CB
     FM240300 19011KT 5SM BR SCT008 OVC015 WS015/22040KT
     FM240800 20008KT 2SM BR OVC008 WS020/22035KT
     FM241500 21012G18KT 6SM BR SCT008 BKN015
     FM241900 21010G16KT P6SM VCSH SCT015 BKN035=



000
FTUS42 KCHS 232300 CCA
TAFCHS
TAF COR
KCHS 232357Z 2400/2424 15010KT 6SM BR VCTS BKN008 OVC015CB
      TEMPO 2400/2404 2SM TSRA BR SCT005 OVC010CB
     FM240400 20012KT 5SM BR SCT008 OVC010 WS015/21040KT
     FM240900 21010KT 2SM BR OVC008 WS015/22040KT
     FM241500 22015G20KT 6SM BR SCT008 OVC012
     FM241900 21012G18KT P6SM VCSH SCT015 BKN020=



000
FTUS42 KCHS 232300 CCA
TAFSAV
TAF COR
KSAV 232356Z 2400/2424 17011KT 4SM BR VCTS BKN008 OVC025CB
      TEMPO 2401/2403 2SM TSRA BR SCT005 BKN010CB
     FM240300 19011KT 5SM BR SCT008 OVC015 WS015/22040KT
     FM240800 20008KT 2SM BR OVC008 WS020/22035KT
     FM241500 21012G18KT 6SM BR SCT008 BKN015
     FM241900 21010G16KT P6SM VCSH SCT015 BKN035=



000
FTUS42 KCHS 232300
TAFSAV
TAF
KSAV 232336Z 2400/2424 17011KT 3SM BR VCTS BKN005 OVC035CB
      TEMPO 2401/2403 2SM TSRA BR SCT005 BKN010CB
     FM240300 19011KT 5SM BR SCT004 OVC010 WS015/22040KT
     FM240800 20008KT 2SM BR SCT003 OVC007 WS020/22035KT
     FM241500 21012G18KT 6SM BR SCT007 BKN015
     FM241900 21010G16KT P6SM VCSH SCT015 BKN035=



000
FTUS42 KCHS 232300
TAFCHS
TAF
KCHS 232336Z 2400/2424 15012KT 6SM BR VCTS BKN008 OVC015CB
      TEMPO 2400/2404 2SM TSRA BR SCT005 OVC010CB
     FM240400 20012KT 5SM BR SCT008 OVC010 WS015/21040KT
     FM240900 21010KT 2SM BR OVC008 WS015/22040KT
     FM241500 22015G20KT 6SM BR SCT008 OVC012
     FM241900 21012G18KT P6SM VCSH SCT015 BKN020=



000
FTUS42 KCHS 232200 AAC
TAFSAV
TAF AMD
KSAV 232256Z 2323/2418 15011KT 3SM BR VCTS BKN005 OVC035CB
      TEMPO 2323/2401 1SM -TSRA BR
     FM240300 16011G16KT 6SM BR SCT004 OVC010
     FM240800 20010KT 2SM BR SCT003 OVC007
     FM241500 21012KT 6SM BR SCT007 BKN015=



000
FTUS42 KCHS 232100 AAB
TAFCHS
TAF AMD
KCHS 232106Z 2321/2418 13014KT 4SM -RA BR OVC007
     FM232300 15013KT 6SM BR VCSH SCT008 BKN015
     FM240400 20012KT 5SM BR OVC007
     FM240600 21010KT 3SM BR OVC004
     FM241430 22012KT 6SM BR OVC006=



000
FTUS42 KCHS 232100 AAB
TAFSAV
TAF AMD
KSAV 232104Z 2321/2418 12010KT 4SM BR VCSH BKN005
     FM240100 16011G16KT 6SM BR SCT004 OVC010
     FM240800 20010KT 2SM BR SCT003 OVC007
     FM241500 21012KT 6SM BR SCT007 BKN015=



000
FTUS42 KCHS 231900 AAA
TAFSAV
TAF AMD
KSAV 231917Z 2319/2418 13010KT 4SM BR VCSH SCT003 BKN005
     FM232100 13010KT 6SM BR VCSH SCT005 BKN012
     FM240300 16011G16KT 6SM BR SCT004 OVC010
     FM240800 20010KT 2SM BR SCT003 OVC007
     FM241500 21012KT 6SM BR SCT007 BKN015=



000
FTUS42 KCHS 231800 AAA
TAFCHS
TAF AMD
KCHS 231838Z 2319/2418 13013KT 4SM -RA BR OVC008
     FM232100 15013KT 6SM BR VCSH SCT008 BKN015
     FM240400 20012KT 5SM BR OVC007
     FM240600 21010KT 3SM BR OVC004
     FM241430 22012KT 6SM BR OVC006=



000
FTUS42 KCHS 231800 CCA
TAFCHS
TAF COR
KCHS 231817Z 2318/2418 13013KT 6SM -RA BR SCT008 OVC011
     FM232100 15013KT 6SM BR VCSH SCT008 BKN015
     FM240400 20012KT 5SM BR OVC007
     FM240600 21010KT 3SM BR OVC004
     FM241430 22012KT 6SM BR OVC006=



000
FTUS42 KCHS 231700
TAFCHS
TAF
KCHS 231740Z 2318/2418 13013KT 6SM -RA BR SCT008 OVC011
      TEMPO 2318/2320 4SM RA BR BKN008
     FM232100 15013KT 6SM BR VCSH SCT008 BKN015
     FM240400 20012KT 5SM BR OVC007
     FM240600 21010KT 3SM BR OVC004
     FM241430 22012KT 6SM BR OVC006=



000
FTUS42 KCHS 231700
TAFSAV
TAF
KSAV 231740Z 2318/2418 11008KT 4SM -RA BR SCT003 BKN005
     FM231900 13010KT 6SM BR VCSH SCT005 BKN012
     FM240300 16011G16KT 6SM BR SCT004 OVC010
     FM240800 20010KT 2SM BR SCT003 OVC007
     FM241500 21012KT 6SM BR SCT007 BKN015=



000
FTUS42 KCHS 231700 AAB
TAFCHS
TAF AMD
KCHS 231703Z 2317/2412 13014KT 3SM RA BR SCT007 OVC012
     FM231900 18014G24KT P6SM VCSH SCT005 BKN010
     FM240300 19012G20KT 4SM -TSRA BR BKN015CB
     FM240600 20008KT 3SM BR BKN007=



000
FTUS42 KCHS 231500 AAB
TAFSAV
TAF AMD
KSAV 231540Z 2316/2412 11014KT 4SM RA BR SCT003 BKN005
     FM231700 14013KT 6SM -RA BR SCT003 BKN005
     FM232000 17013G22KT P6SM VCSH SCT005 BKN008
     FM240100 19012G20KT 4SM -TSRA BR BKN020CB
     FM240400 20008KT 3SM BR BKN006=



000
FTUS42 KCHS 231500 AAB
TAFSAV
TAF AMD
KSAV 231540Z 2316/2412 11014KT 4SM RA BR SCT003 BKN005
     FM231700 14013KT 6SM -RA BR SCT003 BKN005
     FM232000 17013G22KT P6SM VCSH SCT005 BKN008
     FM240100 19012G20KT 4SM -TSRA BR BKN020CB
     FM240400 20008KT 3SM BR BKN006=



000
FTUS42 KCHS 231400 AAA
TAFSAV
TAF AMD
KSAV 231425Z 2314/2412 09014KT 4SM RA BR SCT003 BKN005
      TEMPO 2314/2316 2SM +RA BR BKN004
     FM231600 17015G25KT P6SM VCSH SCT005 BKN020
     FM240100 19012G20KT 4SM -TSRA BR BKN020CB
     FM240400 20008KT 3SM BR BKN006=



000
FTUS42 KCHS 231400 AAA
TAFCHS
TAF AMD
KCHS 231413Z 2314/2412 07014KT 2SM RA BR OVC009
     FM231600 10015KT 3SM RA BR SCT004 OVC008
     FM231900 18014G24KT P6SM VCSH SCT005 BKN010
     FM240300 19012G20KT 4SM -TSRA BR BKN015CB
     FM240600 20008KT 3SM BR BKN007=



000
FTUS42 KCHS 231100
TAFSAV
TAF
KSAV 231129Z 2312/2412 07008KT 2SM RA BR SCT003 BKN006
      WS020/14040KT
      TEMPO 2312/2315 1SM +RA BR BKN003
     FM231600 18015G25KT P6SM VCSH SCT005 BKN020
     FM240100 19012G20KT 4SM -TSRA BR BKN020CB
     FM240400 20008KT 3SM BR BKN006=



000
FTUS42 KCHS 231100
TAFCHS
TAF
KCHS 231129Z 2312/2412 05010KT 4SM -RA BR SCT015 BKN028
      TEMPO 2313/2315 2SM BR SCT006 BKN012
     FM231500 11015KT 2SM RA BR SCT004 OVC008
     FM231900 18014G24KT P6SM VCSH SCT005 BKN010
     FM240300 19012G20KT 4SM -TSRA BR BKN015CB
     FM240600 20008KT 3SM BR BKN007=



000
FTUS42 KCHS 230900 AAA
TAFCHS
TAF AMD
KCHS 230932Z 2310/2406 07007KT P6SM -RA OVC030
      TEMPO 2310/2312 4SM -RA SCT015 OVC025
     FM231200 05006KT 4SM -RA BR SCT007 BKN015
     FM231500 11015KT 2SM RA BR SCT004 OVC008
     FM231900 18014G24KT P6SM VCSH SCT005 BKN010
     FM240100 19012G20KT 4SM -SHRA BR BKN015=



    US Dept of Commerce
    National Oceanic and Atmospheric Administration
    National Weather Service
    1325 East West Highway
    Silver Spring, MD 20910
    Page Author: NWS Internet Services Team
Disclaimer
Information Quality
Credits
Glossary
Privacy Policy
Freedom of Information Act (FOIA)
About Us
Career Opportunities